createdAt,value
2023-04-27T00:04:38.969Z,-0.79
2023-04-27T00:09:41.718Z,-0.77
2023-04-27T00:14:45.776Z,-0.88
2023-04-27T00:19:48.520Z,-0.93
2023-04-27T00:24:51.094Z,-1.01
2023-04-27T00:29:55.018Z,-1.08
2023-04-27T00:34:57.560Z,-1.04
2023-04-27T00:40:00.174Z,-1.06
2023-04-27T00:45:05.957Z,-1.13
2023-04-27T00:50:10.435Z,-1.13
2023-04-27T00:55:13.018Z,-1.21
2023-04-27T01:00:17.182Z,-1.30
2023-04-27T01:05:20.211Z,-1.37
2023-04-27T01:10:23.001Z,-1.40
2023-04-27T01:15:27.035Z,-1.38
2023-04-27T01:20:30.272Z,-1.41
2023-04-27T01:25:34.389Z,-1.41
2023-04-27T01:30:37.006Z,-1.57
2023-04-27T01:35:39.607Z,-1.72
2023-04-27T01:40:43.612Z,-1.77
2023-04-27T01:45:46.676Z,-1.75
2023-04-27T01:50:49.435Z,-1.69
2023-04-27T01:55:53.366Z,-1.82
2023-04-27T02:00:56.125Z,-1.91
2023-04-27T02:05:58.761Z,-1.90
2023-04-27T02:11:02.834Z,-1.87
2023-04-27T02:16:05.805Z,-1.91
2023-04-27T02:21:11.793Z,-1.93
2023-04-27T02:26:19.308Z,-1.91
2023-04-27T02:31:22.103Z,-1.93
2023-04-27T02:36:24.784Z,-2.02
2023-04-27T02:41:28.928Z,-2.04
2023-04-27T02:46:31.610Z,-2.08
2023-04-27T02:51:34.237Z,-2.09
2023-04-27T02:56:38.182Z,-2.17
2023-04-27T03:01:40.806Z,-2.11
2023-04-27T03:06:43.355Z,-2.02
2023-04-27T03:11:47.338Z,-2.10
2023-04-27T03:16:49.992Z,-2.17
2023-04-27T03:21:52.638Z,-2.17
2023-04-27T03:26:56.633Z,-2.21
2023-04-27T03:31:59.254Z,-2.27
2023-04-27T03:37:02.924Z,-2.33
2023-04-27T03:42:06.738Z,-2.39
2023-04-27T03:47:09.849Z,-2.40
2023-04-27T03:52:12.463Z,-2.37
2023-04-27T03:57:16.477Z,-2.23
2023-04-27T04:02:19.243Z,-2.20
2023-04-27T04:07:21.903Z,-2.16
2023-04-27T04:12:25.853Z,-2.12
2023-04-27T04:17:28.466Z,-1.97
2023-04-27T04:22:31.051Z,-1.84
2023-04-27T04:27:34.985Z,-1.76
2023-04-27T04:32:38.744Z,-1.83
2023-04-27T04:37:41.404Z,-1.65
2023-04-27T04:42:46.032Z,-1.60
2023-04-27T04:47:50.462Z,-1.38
2023-04-27T04:52:53.149Z,-0.53
2023-04-27T04:57:57.094Z,0.03
2023-04-27T05:03:01.151Z,-0.25
2023-04-27T05:08:03.955Z,-0.48
2023-04-27T05:13:07.865Z,-0.57
2023-04-27T05:18:10.432Z,-0.54
2023-04-27T05:23:13.106Z,-0.50
2023-04-27T05:28:17.055Z,-0.42
2023-04-27T05:33:19.596Z,-0.29
2023-04-27T05:38:22.191Z,0.02
2023-04-27T05:43:26.710Z,0.36
2023-04-27T05:48:29.299Z,0.67
2023-04-27T05:53:33.888Z,0.96
2023-04-27T05:58:37.829Z,1.25
2023-04-27T06:03:40.736Z,1.44
2023-04-27T06:08:43.473Z,1.63
2023-04-27T06:13:48.126Z,1.89
2023-04-27T06:18:51.347Z,3.45
2023-04-27T06:23:53.965Z,5.86
2023-04-27T06:28:58.122Z,7.38
2023-04-27T06:34:00.855Z,9.13
2023-04-27T06:39:03.529Z,10.48
2023-04-27T06:44:07.505Z,10.92
2023-04-27T06:49:10.112Z,11.64
2023-04-27T06:54:12.635Z,12.12
2023-04-27T06:59:16.583Z,12.76
2023-04-27T07:04:19.317Z,13.35
2023-04-27T07:14:30.560Z,13.50
2023-04-27T07:19:33.205Z,14.41
2023-04-27T07:24:35.725Z,14.17
2023-04-27T07:29:39.674Z,14.35
2023-04-27T07:34:52.541Z,14.10
2023-04-27T07:39:57.657Z,14.83
2023-04-27T07:45:01.577Z,15.00
2023-04-27T07:50:06.230Z,14.77
2023-04-27T07:55:09.867Z,15.53
2023-04-27T08:00:14.752Z,15.27
2023-04-27T08:05:18.263Z,14.25
2023-04-27T08:10:21.431Z,15.47
2023-04-27T08:15:25.552Z,15.67
2023-04-27T08:20:29.192Z,14.90
2023-04-27T08:25:31.749Z,15.57
2023-04-27T08:30:35.693Z,15.64
2023-04-27T08:35:38.386Z,15.44
2023-04-27T08:40:44.037Z,15.66
2023-04-27T08:45:50.893Z,15.80
2023-04-27T08:50:54.595Z,16.57
2023-04-27T08:55:57.873Z,16.47
2023-04-27T09:01:06.876Z,17.03
2023-04-27T09:06:09.948Z,17.03
2023-04-27T09:11:13.155Z,15.82
2023-04-27T09:16:23.688Z,15.76
2023-04-27T09:21:27.778Z,16.29
2023-04-27T09:26:31.856Z,16.64
2023-04-27T09:31:37.134Z,17.47
2023-04-27T09:36:41.447Z,16.57
2023-04-27T09:41:44.120Z,16.12
2023-04-27T09:46:48.928Z,16.01
2023-04-27T09:51:53.102Z,15.75
2023-04-27T09:57:04.514Z,15.85
2023-04-27T10:02:24.241Z,15.53
2023-04-27T10:07:28.811Z,15.59
2023-04-27T10:12:36.255Z,14.89
2023-04-27T10:17:41.051Z,15.50
2023-04-27T10:22:44.862Z,16.27
2023-04-27T10:27:52.900Z,16.38
2023-04-27T10:32:58.511Z,17.00
2023-04-27T10:38:08.373Z,16.93
2023-04-27T10:43:12.339Z,16.48
2023-04-27T10:48:16.581Z,16.40
2023-04-27T10:53:19.294Z,16.92
2023-04-27T10:58:25.455Z,16.88
2023-04-27T11:03:32.789Z,17.41
2023-04-27T11:08:45.149Z,17.81
2023-04-27T11:13:49.849Z,18.00
2023-04-27T11:18:53.805Z,17.86
2023-04-27T11:23:56.853Z,16.42
2023-04-27T11:29:00.632Z,16.52
2023-04-27T11:34:04.694Z,16.60
2023-04-27T11:39:07.423Z,17.92
2023-04-27T11:44:12.039Z,17.55
2023-04-27T11:49:16.167Z,16.41
2023-04-27T11:54:18.809Z,17.48
2023-04-27T11:59:23.052Z,17.59
2023-04-27T12:04:27.492Z,17.11
2023-04-27T12:09:30.272Z,18.27
2023-04-27T12:14:33.904Z,17.93
2023-04-27T12:19:37.947Z,17.97
2023-04-27T12:24:40.732Z,18.41
2023-04-27T12:29:43.223Z,18.05
2023-04-27T12:34:47.240Z,18.18
2023-04-27T12:39:49.763Z,18.22
2023-04-27T12:44:53.252Z,18.59
2023-04-27T12:49:57.235Z,18.54
2023-04-27T12:55:00.006Z,17.55
2023-04-27T13:00:02.430Z,18.42
2023-04-27T13:05:09.852Z,17.98
2023-04-27T13:10:12.636Z,17.83
2023-04-27T13:15:15.217Z,17.33
2023-04-27T13:20:19.177Z,16.90
2023-04-27T13:25:21.799Z,16.32
2023-04-27T13:30:24.459Z,16.44
2023-04-27T13:35:28.749Z,17.38
2023-04-27T13:40:31.355Z,17.06
2023-04-27T13:45:33.952Z,17.32
2023-04-27T13:50:37.838Z,16.96
2023-04-27T13:55:40.475Z,17.11
2023-04-27T14:00:43.175Z,16.47
2023-04-27T14:05:48.755Z,16.66
2023-04-27T14:10:51.423Z,16.65
2023-04-27T14:15:53.959Z,17.05
2023-04-27T14:20:57.912Z,16.49
2023-04-27T14:26:00.516Z,17.20
2023-04-27T14:31:03.153Z,17.27
2023-04-27T14:36:07.697Z,16.62
2023-04-27T14:41:10.366Z,16.91
2023-04-27T14:46:20.736Z,15.61
2023-04-27T14:51:25.398Z,15.29
2023-04-27T14:56:27.988Z,15.69
2023-04-27T15:01:30.671Z,15.86
2023-04-27T15:06:34.663Z,15.65
2023-04-27T15:11:37.202Z,14.59
2023-04-27T15:16:39.838Z,14.69
2023-04-27T15:21:43.851Z,14.42
2023-04-27T15:26:47.435Z,14.12
2023-04-27T15:31:50.161Z,14.19
2023-04-27T15:36:54.136Z,14.32
2023-04-27T15:41:58.527Z,14.28
2023-04-27T15:47:01.366Z,14.31
2023-04-27T15:52:06.066Z,14.45
2023-04-27T15:57:08.649Z,14.37
2023-04-27T16:02:11.485Z,14.34
2023-04-27T16:07:15.636Z,14.49
2023-04-27T16:12:18.251Z,14.16
2023-04-27T16:17:20.846Z,14.58
2023-04-27T16:22:24.979Z,14.82
2023-04-27T16:27:27.752Z,14.73
2023-04-27T16:32:31.484Z,14.32
2023-04-27T16:37:37.012Z,13.95
2023-04-27T16:42:39.585Z,13.87
2023-04-27T16:47:42.496Z,13.54
2023-04-27T16:52:46.511Z,13.36
2023-04-27T16:57:49.224Z,13.31
2023-04-27T17:02:52.078Z,13.17
2023-04-27T17:07:56.208Z,12.89
2023-04-27T17:12:58.788Z,12.58
2023-04-27T17:18:04.584Z,12.27
2023-04-27T17:23:08.606Z,12.09
2023-04-27T17:28:11.320Z,11.87
2023-04-27T17:33:14.833Z,11.79
2023-04-27T17:38:18.865Z,11.72
2023-04-27T17:43:21.445Z,11.53
2023-04-27T17:48:24.049Z,11.47
2023-04-27T17:53:27.963Z,11.36
2023-04-27T17:58:32.384Z,11.27
2023-04-27T18:03:35.127Z,11.13
2023-04-27T18:08:39.155Z,11.02
2023-04-27T18:13:42.396Z,10.92
2023-04-27T18:18:46.027Z,10.82
2023-04-27T18:23:49.964Z,10.70
2023-04-27T18:28:52.574Z,10.59
2023-04-27T18:33:55.968Z,10.50
2023-04-27T18:39:00.019Z,10.33
2023-04-27T18:44:06.178Z,10.21
2023-04-27T18:49:08.792Z,10.03
2023-04-27T18:54:12.867Z,9.90
2023-04-27T18:59:15.895Z,9.75
2023-04-27T19:04:18.921Z,9.62
2023-04-27T19:09:22.957Z,9.59
2023-04-27T19:14:25.799Z,9.48
2023-04-27T19:19:28.432Z,9.35
2023-04-27T19:24:32.589Z,9.27
2023-04-27T19:29:49.951Z,9.15
2023-04-27T19:34:53.950Z,9.01
2023-04-27T19:39:57.907Z,8.79
2023-04-27T19:45:00.857Z,8.67
2023-04-27T19:50:04.845Z,8.54
2023-04-27T19:55:09.577Z,8.45
2023-04-27T20:00:13.108Z,8.44
2023-04-27T20:05:15.729Z,8.45
2023-04-27T20:10:21.140Z,8.45
2023-04-27T20:15:23.894Z,8.42
2023-04-27T20:20:26.421Z,8.38
2023-04-27T20:25:30.628Z,8.32
2023-04-27T20:30:33.219Z,8.26
2023-04-27T20:35:36.965Z,8.21
2023-04-27T20:40:42.073Z,8.13
2023-04-27T20:45:44.877Z,8.15
2023-04-27T20:50:47.446Z,8.12
2023-04-27T20:55:51.353Z,8.12
2023-04-27T21:00:53.983Z,8.15
2023-04-27T21:05:56.589Z,8.24
2023-04-27T21:11:00.493Z,8.27
2023-04-27T21:16:03.997Z,8.33
2023-04-27T21:21:06.552Z,8.34
2023-04-27T21:26:10.818Z,8.34
2023-04-27T21:31:13.469Z,8.43
2023-04-27T21:36:16.153Z,8.42
2023-04-27T21:41:20.040Z,8.44
2023-04-27T21:46:24.174Z,8.47
2023-04-27T21:51:26.837Z,8.46
2023-04-27T21:56:30.767Z,8.47
2023-04-27T22:01:33.351Z,8.44
2023-04-27T22:06:35.955Z,8.39
2023-04-27T22:11:39.892Z,8.41
2023-04-27T22:16:42.852Z,8.41
2023-04-27T22:21:45.608Z,8.36
2023-04-27T22:26:49.475Z,8.31
2023-04-27T22:31:52.476Z,8.28
2023-04-27T22:36:55.162Z,8.26
2023-04-27T22:41:59.590Z,8.22
2023-04-27T22:47:02.767Z,8.13
2023-04-27T22:52:05.879Z,8.10
2023-04-27T22:57:10.030Z,8.08
2023-04-27T23:02:13.700Z,8.08
2023-04-27T23:07:18.291Z,8.06
2023-04-27T23:12:22.345Z,8.04
2023-04-27T23:17:29.580Z,8.05
2023-04-27T23:22:32.238Z,8.02
2023-04-27T23:27:36.330Z,7.99
2023-04-27T23:32:38.902Z,8.00
2023-04-27T23:37:41.481Z,7.95
2023-04-27T23:42:45.371Z,7.93
2023-04-27T23:47:49.026Z,7.89
2023-04-27T23:52:51.613Z,7.77
2023-04-27T23:57:56.198Z,7.70
